sensor_id;sensor_type;location;lat;lon;timestamp;pressure;altitude;pressure_sealevel;temperature;humidity
26043;BME280;13818;52.156;5.382;2023-11-19T00:02:17;100516.03;;;13.87;100.00
26043;BME280;13818;52.156;5.382;2023-11-19T00:04:44;100503.81;;;13.83;100.00
26043;BME280;13818;52.156;5.382;2023-11-19T00:07:10;100506.16;;;13.88;100.00
26043;BME280;13818;52.156;5.382;2023-11-19T00:09:38;100508.94;;;13.86;100.00
26043;BME280;13818;52.156;5.382;2023-11-19T00:12:05;100501.97;;;13.83;100.00
26043;BME280;13818;52.156;5.382;2023-11-19T00:14:32;100493.09;;;13.83;100.00
26043;BME280;13818;52.156;5.382;2023-11-19T00:16:59;100506.66;;;13.80;100.00
26043;BME280;13818;52.156;5.382;2023-11-19T00:19:28;100510.00;;;13.83;100.00
26043;BME280;13818;52.156;5.382;2023-11-19T00:21:54;100507.88;;;13.89;100.00
26043;BME280;13818;52.156;5.382;2023-11-19T00:24:21;100510.78;;;13.86;100.00
26043;BME280;13818;52.156;5.382;2023-11-19T00:26:47;100506.38;;;13.85;100.00
26043;BME280;13818;52.156;5.382;2023-11-19T00:29:14;100498.13;;;13.88;100.00
26043;BME280;13818;52.156;5.382;2023-11-19T00:31:41;100491.25;;;13.83;100.00
26043;BME280;13818;52.156;5.382;2023-11-19T00:34:07;100481.72;;;13.79;100.00
26043;BME280;13818;52.156;5.382;2023-11-19T00:36:38;100477.97;;;13.82;100.00
26043;BME280;13818;52.156;5.382;2023-11-19T00:39:04;100484.00;;;13.86;100.00
26043;BME280;13818;52.156;5.382;2023-11-19T00:41:31;100485.91;;;13.83;100.00
26043;BME280;13818;52.156;5.382;2023-11-19T00:43:57;100480.53;;;13.83;100.00
26043;BME280;13818;52.156;5.382;2023-11-19T00:46:24;100472.63;;;13.82;100.00
26043;BME280;13818;52.156;5.382;2023-11-19T00:48:51;100479.38;;;13.88;100.00
26043;BME280;13818;52.156;5.382;2023-11-19T00:51:18;100467.16;;;13.83;100.00
26043;BME280;13818;52.156;5.382;2023-11-19T00:53:46;100470.38;;;13.89;100.00
26043;BME280;13818;52.156;5.382;2023-11-19T00:56:12;100455.91;;;13.91;100.00
26043;BME280;13818;52.156;5.382;2023-11-19T00:58:38;100467.03;;;13.85;100.00
26043;BME280;13818;52.156;5.382;2023-11-19T01:01:05;100471.22;;;13.89;100.00
26043;BME280;13818;52.156;5.382;2023-11-19T01:03:31;100475.75;;;13.89;100.00
26043;BME280;13818;52.156;5.382;2023-11-19T01:05:58;100474.13;;;13.86;100.00
26043;BME280;13818;52.156;5.382;2023-11-19T01:08:25;100470.38;;;13.89;100.00
26043;BME280;13818;52.156;5.382;2023-11-19T01:10:53;100473.56;;;13.81;100.00
26043;BME280;13818;52.156;5.382;2023-11-19T01:13:19;100473.56;;;13.81;100.00
26043;BME280;13818;52.156;5.382;2023-11-19T01:15:46;100468.41;;;13.78;100.00
26043;BME280;13818;52.156;5.382;2023-11-19T01:18:13;100461.44;;;13.75;100.00
26043;BME280;13818;52.156;5.382;2023-11-19T01:20:39;100456.00;;;13.77;100.00
26043;BME280;13818;52.156;5.382;2023-11-19T01:23:06;100442.59;;;13.77;100.00
26043;BME280;13818;52.156;5.382;2023-11-19T01:25:35;100449.97;;;13.73;100.00
26043;BME280;13818;52.156;5.382;2023-11-19T01:28:04;100454.38;;;13.74;100.00
26043;BME280;13818;52.156;5.382;2023-11-19T01:30:31;100441.81;;;13.75;100.00
26043;BME280;13818;52.156;5.382;2023-11-19T01:32:57;100440.97;;;13.74;100.00
26043;BME280;13818;52.156;5.382;2023-11-19T01:35:25;100453.50;;;13.74;100.00
26043;BME280;13818;52.156;5.382;2023-11-19T01:37:53;100454.94;;;13.79;100.00
26043;BME280;13818;52.156;5.382;2023-11-19T01:40:20;100441.94;;;13.73;100.00
26043;BME280;13818;52.156;5.382;2023-11-19T01:42:47;100446.41;;;13.73;100.00
26043;BME280;13818;52.156;5.382;2023-11-19T01:45:22;100449.41;;;13.68;100.00
26043;BME280;13818;52.156;5.382;2023-11-19T01:47:52;100455.50;;;13.70;100.00
26043;BME280;13818;52.156;5.382;2023-11-19T01:50:19;100453.78;;;13.69;100.00
26043;BME280;13818;52.156;5.382;2023-11-19T01:52:46;100449.03;;;13.74;100.00
26043;BME280;13818;52.156;5.382;2023-11-19T01:55:13;100445.56;;;13.72;100.00
26043;BME280;13818;52.156;5.382;2023-11-19T01:57:40;100454.44;;;13.73;100.00
26043;BME280;13818;52.156;5.382;2023-11-19T02:00:09;100457.50;;;13.81;100.00
26043;BME280;13818;52.156;5.382;2023-11-19T02:02:38;100452.53;;;13.75;100.00
26043;BME280;13818;52.156;5.382;2023-11-19T02:05:06;100443.75;;;13.73;100.00
26043;BME280;13818;52.156;5.382;2023-11-19T02:07:32;100445.75;;;13.69;100.00
26043;BME280;13818;52.156;5.382;2023-11-19T02:09:59;100443.59;;;13.61;100.00
26043;BME280;13818;52.156;5.382;2023-11-19T02:12:26;100433.53;;;13.65;100.00
26043;BME280;13818;52.156;5.382;2023-11-19T02:14:54;100424.28;;;13.56;100.00
26043;BME280;13818;52.156;5.382;2023-11-19T02:17:28;100443.25;;;13.53;100.00
26043;BME280;13818;52.156;5.382;2023-11-19T02:19:57;100443.25;;;13.53;100.00
26043;BME280;13818;52.156;5.382;2023-11-19T02:22:24;100444.69;;;13.44;100.00
26043;BME280;13818;52.156;5.382;2023-11-19T02:24:54;100445.16;;;13.37;100.00
26043;BME280;13818;52.156;5.382;2023-11-19T02:27:28;100463.72;;;13.40;100.00
26043;BME280;13818;52.156;5.382;2023-11-19T02:29:58;100449.59;;;13.38;100.00
26043;BME280;13818;52.156;5.382;2023-11-19T02:32:27;100460.56;;;13.33;100.00
26043;BME280;13818;52.156;5.382;2023-11-19T02:34:53;100459.50;;;13.35;100.00
26043;BME280;13818;52.156;5.382;2023-11-19T02:37:20;100462.78;;;13.26;100.00
26043;BME280;13818;52.156;5.382;2023-11-19T02:39:47;100459.22;;;13.26;100.00
26043;BME280;13818;52.156;5.382;2023-11-19T02:42:13;100450.13;;;13.28;100.00
26043;BME280;13818;52.156;5.382;2023-11-19T02:44:43;100451.41;;;13.23;100.00
26043;BME280;13818;52.156;5.382;2023-11-19T02:47:11;100446.88;;;13.23;100.00
26043;BME280;13818;52.156;5.382;2023-11-19T02:49:37;100442.81;;;13.17;100.00
26043;BME280;13818;52.156;5.382;2023-11-19T02:52:05;100450.72;;;13.19;100.00
26043;BME280;13818;52.156;5.382;2023-11-19T02:54:32;100447.00;;;13.22;100.00
26043;BME280;13818;52.156;5.382;2023-11-19T02:57:00;100449.19;;;13.15;100.00
26043;BME280;13818;52.156;5.382;2023-11-19T02:59:28;100454.84;;;13.10;100.00
26043;BME280;13818;52.156;5.382;2023-11-19T03:02:04;100449.00;;;13.03;100.00
26043;BME280;13818;52.156;5.382;2023-11-19T03:04:33;100444.63;;;13.02;100.00
26043;BME280;13818;52.156;5.382;2023-11-19T03:06:59;100434.97;;;13.00;100.00
26043;BME280;13818;52.156;5.382;2023-11-19T03:09:26;100443.06;;;12.98;100.00
26043;BME280;13818;52.156;5.382;2023-11-19T03:11:53;100442.34;;;12.96;100.00
26043;BME280;13818;52.156;5.382;2023-11-19T03:14:19;100445.97;;;12.95;100.00
26043;BME280;13818;52.156;5.382;2023-11-19T03:16:47;100444.50;;;12.90;100.00
26043;BME280;13818;52.156;5.382;2023-11-19T03:19:13;100450.53;;;12.93;100.00
26043;BME280;13818;52.156;5.382;2023-11-19T03:21:41;100447.78;;;12.95;100.00
26043;BME280;13818;52.156;5.382;2023-11-19T03:24:08;100447.84;;;12.93;100.00
26043;BME280;13818;52.156;5.382;2023-11-19T03:26:34;100454.25;;;12.91;100.00
26043;BME280;13818;52.156;5.382;2023-11-19T03:29:02;100454.56;;;12.86;100.00
26043;BME280;13818;52.156;5.382;2023-11-19T03:31:28;100442.81;;;12.89;100.00
26043;BME280;13818;52.156;5.382;2023-11-19T03:33:55;100442.25;;;12.83;100.00
26043;BME280;13818;52.156;5.382;2023-11-19T03:36:21;100436.78;;;12.85;100.00
26043;BME280;13818;52.156;5.382;2023-11-19T03:38:50;100431.16;;;12.75;100.00
26043;BME280;13818;52.156;5.382;2023-11-19T03:41:17;100430.94;;;12.78;100.00
26043;BME280;13818;52.156;5.382;2023-11-19T03:43:44;100434.78;;;12.74;100.00
26043;BME280;13818;52.156;5.382;2023-11-19T03:46:17;100421.69;;;12.69;100.00
26043;BME280;13818;52.156;5.382;2023-11-19T03:48:44;100425.34;;;12.68;100.00
26043;BME280;13818;52.156;5.382;2023-11-19T03:51:11;100440.13;;;12.74;100.00
26043;BME280;13818;52.156;5.382;2023-11-19T03:53:41;100437.28;;;12.77;100.00
26043;BME280;13818;52.156;5.382;2023-11-19T03:56:09;100443.75;;;12.59;100.00
26043;BME280;13818;52.156;5.382;2023-11-19T03:58:36;100447.78;;;12.66;100.00
26043;BME280;13818;52.156;5.382;2023-11-19T04:01:03;100461.69;;;12.57;100.00
26043;BME280;13818;52.156;5.382;2023-11-19T04:03:30;100458.84;;;12.60;100.00
26043;BME280;13818;52.156;5.382;2023-11-19T04:05:57;100458.31;;;12.53;100.00
26043;BME280;13818;52.156;5.382;2023-11-19T04:08:24;100462.72;;;12.54;100.00
26043;BME280;13818;52.156;5.382;2023-11-19T04:10:50;100460.94;;;12.55;100.00
26043;BME280;13818;52.156;5.382;2023-11-19T04:13:18;100445.06;;;12.51;100.00
26043;BME280;13818;52.156;5.382;2023-11-19T04:15:45;100447.94;;;12.48;100.00
26043;BME280;13818;52.156;5.382;2023-11-19T04:18:12;100452.13;;;12.38;100.00
26043;BME280;13818;52.156;5.382;2023-11-19T04:20:38;100452.03;;;12.40;100.00
26043;BME280;13818;52.156;5.382;2023-11-19T04:23:05;100471.69;;;12.39;100.00
26043;BME280;13818;52.156;5.382;2023-11-19T04:25:31;100468.53;;;12.32;100.00
26043;BME280;13818;52.156;5.382;2023-11-19T04:27:58;100470.50;;;12.28;100.00
26043;BME280;13818;52.156;5.382;2023-11-19T04:30:26;100462.28;;;12.31;100.00
26043;BME280;13818;52.156;5.382;2023-11-19T04:32:52;100460.56;;;12.30;100.00
26043;BME280;13818;52.156;5.382;2023-11-19T04:35:19;100461.44;;;12.31;100.00
26043;BME280;13818;52.156;5.382;2023-11-19T04:37:46;100471.34;;;12.29;100.00
26043;BME280;13818;52.156;5.382;2023-11-19T04:40:13;100468.69;;;12.29;100.00
26043;BME280;13818;52.156;5.382;2023-11-19T04:42:39;100468.59;;;12.30;100.00
26043;BME280;13818;52.156;5.382;2023-11-19T04:45:07;100464.47;;;12.25;100.00
26043;BME280;13818;52.156;5.382;2023-11-19T04:47:36;100464.38;;;12.26;100.00
26043;BME280;13818;52.156;5.382;2023-11-19T04:50:03;100473.53;;;12.22;100.00
26043;BME280;13818;52.156;5.382;2023-11-19T04:52:30;100466.38;;;12.23;100.00
26043;BME280;13818;52.156;5.382;2023-11-19T04:54:57;100455.69;;;12.23;100.00
26043;BME280;13818;52.156;5.382;2023-11-19T04:57:23;100459.69;;;12.15;100.00
26043;BME280;13818;52.156;5.382;2023-11-19T04:59:49;100452.44;;;12.17;100.00
26043;BME280;13818;52.156;5.382;2023-11-19T05:02:16;100449.38;;;12.09;100.00
26043;BME280;13818;52.156;5.382;2023-11-19T05:04:44;100460.63;;;12.14;100.00
26043;BME280;13818;52.156;5.382;2023-11-19T05:07:12;100466.16;;;12.11;100.00
26043;BME280;13818;52.156;5.382;2023-11-19T05:09:38;100470.75;;;12.09;100.00
26043;BME280;13818;52.156;5.382;2023-11-19T05:12:05;100475.19;;;12.09;100.00
26043;BME280;13818;52.156;5.382;2023-11-19T05:14:35;100483.81;;;12.14;100.00
26043;BME280;13818;52.156;5.382;2023-11-19T05:17:01;100468.47;;;12.17;100.00
26043;BME280;13818;52.156;5.382;2023-11-19T05:19:28;100471.31;;;12.14;100.00
26043;BME280;13818;52.156;5.382;2023-11-19T05:21:56;100465.41;;;12.09;100.00
26043;BME280;13818;52.156;5.382;2023-11-19T05:24:22;100469.41;;;12.16;100.00
26043;BME280;13818;52.156;5.382;2023-11-19T05:26:49;100467.03;;;12.12;100.00
26043;BME280;13818;52.156;5.382;2023-11-19T05:29:16;100474.00;;;12.14;100.00
26043;BME280;13818;52.156;5.382;2023-11-19T05:31:42;100469.50;;;12.15;100.00
26043;BME280;13818;52.156;5.382;2023-11-19T05:34:09;100471.31;;;12.14;100.00
26043;BME280;13818;52.156;5.382;2023-11-19T05:36:35;100472.13;;;12.00;100.00
26043;BME280;13818;52.156;5.382;2023-11-19T05:39:03;100464.88;;;12.02;100.00
26043;BME280;13818;52.156;5.382;2023-11-19T05:41:30;100467.47;;;12.04;100.00
26043;BME280;13818;52.156;5.382;2023-11-19T05:43:56;100461.94;;;12.07;100.00
26043;BME280;13818;52.156;5.382;2023-11-19T05:46:23;100466.44;;;12.07;100.00
26043;BME280;13818;52.156;5.382;2023-11-19T05:48:50;100466.69;;;12.02;100.00
26043;BME280;13818;52.156;5.382;2023-11-19T05:51:17;100470.16;;;12.04;100.00
26043;BME280;13818;52.156;5.382;2023-11-19T05:53:44;100482.03;;;11.98;100.00
26043;BME280;13818;52.156;5.382;2023-11-19T05:56:13;100477.72;;;11.96;100.00
26043;BME280;13818;52.156;5.382;2023-11-19T05:58:41;100477.63;;;11.97;100.00
26043;BME280;13818;52.156;5.382;2023-11-19T06:01:09;100475.13;;;11.94;100.00
26043;BME280;13818;52.156;5.382;2023-11-19T06:03:36;100466.78;;;12.00;100.00
26043;BME280;13818;52.156;5.382;2023-11-19T06:06:03;100484.06;;;11.93;100.00
26043;BME280;13818;52.156;5.382;2023-11-19T06:08:30;100466.53;;;11.89;100.00
26043;BME280;13818;52.156;5.382;2023-11-19T06:10:57;100469.25;;;11.87;100.00
26043;BME280;13818;52.156;5.382;2023-11-19T06:13:27;100467.91;;;11.80;100.00
26043;BME280;13818;52.156;5.382;2023-11-19T06:15:55;100459.47;;;11.72;100.00
26043;BME280;13818;52.156;5.382;2023-11-19T06:18:22;100459.81;;;11.66;100.00
26043;BME280;13818;52.156;5.382;2023-11-19T06:20:48;100470.91;;;11.74;100.00
26043;BME280;13818;52.156;5.382;2023-11-19T06:23:15;100472.38;;;11.80;100.00
26043;BME280;13818;52.156;5.382;2023-11-19T06:25:42;100478.41;;;11.83;100.00
26043;BME280;13818;52.156;5.382;2023-11-19T06:28:08;100487.09;;;11.87;100.00
26043;BME280;13818;52.156;5.382;2023-11-19T06:30:36;100481.94;;;11.84;100.00
26043;BME280;13818;52.156;5.382;2023-11-19T06:33:03;100480.66;;;11.75;100.00
26043;BME280;13818;52.156;5.382;2023-11-19T06:35:30;100487.53;;;11.79;100.00
26043;BME280;13818;52.156;5.382;2023-11-19T06:38:01;100482.97;;;11.81;100.00
26043;BME280;13818;52.156;5.382;2023-11-19T06:40:28;100477.72;;;11.80;100.00
26043;BME280;13818;52.156;5.382;2023-11-19T06:42:55;100496.16;;;11.84;100.00
26043;BME280;13818;52.156;5.382;2023-11-19T06:45:21;100498.91;;;11.83;100.00
26043;BME280;13818;52.156;5.382;2023-11-19T06:47:49;100487.88;;;11.89;100.00
26043;BME280;13818;52.156;5.382;2023-11-19T06:50:16;100495.19;;;11.85;100.00
26043;BME280;13818;52.156;5.382;2023-11-19T06:52:44;100497.44;;;11.77;100.00
26043;BME280;13818;52.156;5.382;2023-11-19T06:55:11;100496.16;;;11.84;100.00
26043;BME280;13818;52.156;5.382;2023-11-19T06:57:37;100500.44;;;11.87;100.00
26043;BME280;13818;52.156;5.382;2023-11-19T07:00:05;100499.41;;;11.89;100.00
26043;BME280;13818;52.156;5.382;2023-11-19T07:02:32;100507.97;;;11.96;100.00
26043;BME280;13818;52.156;5.382;2023-11-19T07:04:59;100508.28;;;11.90;100.00
26043;BME280;13818;52.156;5.382;2023-11-19T07:07:26;100504.50;;;11.94;100.00
26043;BME280;13818;52.156;5.382;2023-11-19T07:09:53;100503.63;;;11.94;100.00
26043;BME280;13818;52.156;5.382;2023-11-19T07:12:19;100506.38;;;11.92;100.00
26043;BME280;13818;52.156;5.382;2023-11-19T07:14:45;100517.16;;;11.91;100.00
26043;BME280;13818;52.156;5.382;2023-11-19T07:17:12;100509.94;;;11.93;100.00
26043;BME280;13818;52.156;5.382;2023-11-19T07:19:39;100514.19;;;11.97;100.00
26043;BME280;13818;52.156;5.382;2023-11-19T07:22:06;100521.25;;;11.98;100.00
26043;BME280;13818;52.156;5.382;2023-11-19T07:24:33;100523.47;;;12.06;100.00
26043;BME280;13818;52.156;5.382;2023-11-19T07:27:00;100533.63;;;11.99;100.00
26043;BME280;13818;52.156;5.382;2023-11-19T07:29:29;100524.13;;;11.93;100.00
26043;BME280;13818;52.156;5.382;2023-11-19T07:31:56;100535.09;;;12.04;100.00
26043;BME280;13818;52.156;5.382;2023-11-19T07:34:23;100535.09;;;12.04;100.00
26043;BME280;13818;52.156;5.382;2023-11-19T07:36:50;100530.78;;;12.02;100.00
26043;BME280;13818;52.156;5.382;2023-11-19T07:39:18;100539.50;;;12.06;100.00
26043;BME280;13818;52.156;5.382;2023-11-19T07:41:46;100532.94;;;12.11;100.00
26043;BME280;13818;52.156;5.382;2023-11-19T07:44:12;100534.50;;;12.15;100.00
26043;BME280;13818;52.156;5.382;2023-11-19T07:46:38;100529.75;;;12.20;100.00
26043;BME280;13818;52.156;5.382;2023-11-19T07:49:07;100530.81;;;12.32;100.00
26043;BME280;13818;52.156;5.382;2023-11-19T07:51:35;100536.19;;;12.32;100.00
26043;BME280;13818;52.156;5.382;2023-11-19T07:54:01;100524.53;;;12.33;100.00
26043;BME280;13818;52.156;5.382;2023-11-19T07:56:29;100541.84;;;12.42;100.00
26043;BME280;13818;52.156;5.382;2023-11-19T07:58:55;100530.97;;;12.45;100.00
26043;BME280;13818;52.156;5.382;2023-11-19T08:01:22;100527.19;;;12.49;100.00
26043;BME280;13818;52.156;5.382;2023-11-19T08:03:49;100533.97;;;12.55;100.00
26043;BME280;13818;52.156;5.382;2023-11-19T08:06:15;100529.66;;;12.52;100.00
26043;BME280;13818;52.156;5.382;2023-11-19T08:08:42;100528.72;;;12.53;100.00
26043;BME280;13818;52.156;5.382;2023-11-19T08:11:08;100531.28;;;12.55;100.00
26043;BME280;13818;52.156;5.382;2023-11-19T08:13:36;100529.28;;;12.59;100.00
26043;BME280;13818;52.156;5.382;2023-11-19T08:16:03;100529.31;;;12.73;100.00
26043;BME280;13818;52.156;5.382;2023-11-19T08:18:29;100532.97;;;12.72;100.00
26043;BME280;13818;52.156;5.382;2023-11-19T08:20:56;100532.78;;;12.75;100.00
26043;BME280;13818;52.156;5.382;2023-11-19T08:23:24;100526.59;;;12.89;100.00
26043;BME280;13818;52.156;5.382;2023-11-19T08:25:51;100529.25;;;12.89;100.00
26043;BME280;13818;52.156;5.382;2023-11-19T08:28:17;100525.63;;;12.90;100.00
26043;BME280;13818;52.156;5.382;2023-11-19T08:30:45;100529.34;;;12.88;100.00
26043;BME280;13818;52.156;5.382;2023-11-19T08:33:11;100526.00;;;12.84;100.00
26043;BME280;13818;52.156;5.382;2023-11-19T08:35:38;100534.03;;;12.84;100.00
26043;BME280;13818;52.156;5.382;2023-11-19T08:38:05;100549.84;;;12.73;100.00
26043;BME280;13818;52.156;5.382;2023-11-19T08:40:32;100554.66;;;12.82;100.00
26043;BME280;13818;52.156;5.382;2023-11-19T08:42:58;100556.59;;;12.94;100.00
26043;BME280;13818;52.156;5.382;2023-11-19T08:45:25;100547.97;;;13.03;100.00
26043;BME280;13818;52.156;5.382;2023-11-19T08:47:53;100541.09;;;12.99;100.00
26043;BME280;13818;52.156;5.382;2023-11-19T08:50:19;100556.41;;;13.12;100.00
26043;BME280;13818;52.156;5.382;2023-11-19T08:52:45;100541.63;;;13.06;100.00
26043;BME280;13818;52.156;5.382;2023-11-19T08:55:12;100558.44;;;13.23;100.00
26043;BME280;13818;52.156;5.382;2023-11-19T08:57:39;100556.00;;;13.03;100.00
26043;BME280;13818;52.156;5.382;2023-11-19T09:00:06;100551.34;;;13.07;100.00
26043;BME280;13818;52.156;5.382;2023-11-19T09:02:33;100542.19;;;13.11;100.00
26043;BME280;13818;52.156;5.382;2023-11-19T09:05:01;100546.84;;;13.22;100.00
26043;BME280;13818;52.156;5.382;2023-11-19T09:07:28;100541.72;;;13.19;100.00
26043;BME280;13818;52.156;5.382;2023-11-19T09:09:54;100543.81;;;13.28;100.00
26043;BME280;13818;52.156;5.382;2023-11-19T09:12:21;100551.16;;;13.25;100.00
26043;BME280;13818;52.156;5.382;2023-11-19T09:14:47;100548.09;;;13.31;100.00
26043;BME280;13818;52.156;5.382;2023-11-19T09:17:14;100546.38;;;13.30;100.00
26043;BME280;13818;52.156;5.382;2023-11-19T09:19:41;100544.91;;;13.40;100.00
26043;BME280;13818;52.156;5.382;2023-11-19T09:22:08;100545.66;;;13.42;100.00
26043;BME280;13818;52.156;5.382;2023-11-19T09:24:35;100540.78;;;13.49;100.00
26043;BME280;13818;52.156;5.382;2023-11-19T09:27:01;100540.63;;;13.36;100.00
26043;BME280;13818;52.156;5.382;2023-11-19T09:29:31;100536.94;;;13.39;100.00
26043;BME280;13818;52.156;5.382;2023-11-19T09:31:57;100536.88;;;13.40;100.00
26043;BME280;13818;52.156;5.382;2023-11-19T09:34:24;100545.09;;;13.37;100.00
26043;BME280;13818;52.156;5.382;2023-11-19T09:36:50;100548.66;;;13.36;100.00
26043;BME280;13818;52.156;5.382;2023-11-19T09:39:18;100542.22;;;13.40;100.00
26043;BME280;13818;52.156;5.382;2023-11-19T09:41:46;100544.69;;;13.43;100.00
26043;BME280;13818;52.156;5.382;2023-11-19T09:44:12;100540.84;;;13.33;100.00
26043;BME280;13818;52.156;5.382;2023-11-19T09:46:40;100541.25;;;13.41;100.00
26043;BME280;13818;52.156;5.382;2023-11-19T09:49:08;100537.22;;;13.48;100.00
26043;BME280;13818;52.156;5.382;2023-11-19T09:51:35;100541.44;;;13.53;100.00
26043;BME280;13818;52.156;5.382;2023-11-19T09:54:02;100531.88;;;13.63;100.00
26043;BME280;13818;52.156;5.382;2023-11-19T09:56:30;100537.06;;;13.52;100.00
26043;BME280;13818;52.156;5.382;2023-11-19T09:58:58;100523.06;;;13.61;100.00
26043;BME280;13818;52.156;5.382;2023-11-19T10:01:26;100522.63;;;13.54;100.00
26043;BME280;13818;52.156;5.382;2023-11-19T10:03:55;100522.63;;;13.54;100.00
26043;BME280;13818;52.156;5.382;2023-11-19T10:06:22;100533.75;;;13.75;100.00
26043;BME280;13818;52.156;5.382;2023-11-19T10:08:52;100530.09;;;13.76;100.00
26043;BME280;13818;52.156;5.382;2023-11-19T10:11:18;100524.06;;;13.87;100.00
26043;BME280;13818;52.156;5.382;2023-11-19T10:13:46;100521.50;;;13.86;100.00
26043;BME280;13818;52.156;5.382;2023-11-19T10:16:13;100518.59;;;13.89;100.00
26043;BME280;13818;52.156;5.382;2023-11-19T10:18:42;100524.50;;;13.94;100.00
26043;BME280;13818;52.156;5.382;2023-11-19T10:21:11;100501.19;;;13.96;100.00
26043;BME280;13818;52.156;5.382;2023-11-19T10:23:51;100510.44;;;14.05;100.00
26043;BME280;13818;52.156;5.382;2023-11-19T10:26:19;100501.66;;;14.15;100.00
26043;BME280;13818;52.156;5.382;2023-11-19T10:28:47;100506.50;;;14.23;100.00
26043;BME280;13818;52.156;5.382;2023-11-19T10:31:13;100506.84;;;14.31;100.00
26043;BME280;13818;52.156;5.382;2023-11-19T10:33:40;100517.69;;;14.30;100.00
26043;BME280;13818;52.156;5.382;2023-11-19T10:36:07;100507.50;;;14.35;100.00
26043;BME280;13818;52.156;5.382;2023-11-19T10:38:35;100506.44;;;14.38;100.00
26043;BME280;13818;52.156;5.382;2023-11-19T10:41:01;100515.53;;;14.62;100.00
26043;BME280;13818;52.156;5.382;2023-11-19T10:43:29;100506.59;;;14.62;100.00
26043;BME280;13818;52.156;5.382;2023-11-19T10:46:08;100508.03;;;14.68;100.00
26043;BME280;13818;52.156;5.382;2023-11-19T10:48:35;100504.09;;;14.46;100.00
26043;BME280;13818;52.156;5.382;2023-11-19T10:51:05;100500.91;;;14.54;100.00
26043;BME280;13818;52.156;5.382;2023-11-19T10:53:33;100501.25;;;14.75;100.00
26043;BME280;13818;52.156;5.382;2023-11-19T10:56:04;100500.22;;;14.90;100.00
26043;BME280;13818;52.156;5.382;2023-11-19T10:58:35;100498.38;;;15.04;100.00
26043;BME280;13818;52.156;5.382;2023-11-19T11:01:09;100503.00;;;15.15;100.00
26043;BME280;13818;52.156;5.382;2023-11-19T11:03:39;100494.63;;;14.93;100.00
26043;BME280;13818;52.156;5.382;2023-11-19T11:06:06;100494.53;;;14.82;100.00
26043;BME280;13818;52.156;5.382;2023-11-19T11:08:36;100518.66;;;14.69;100.00
26043;BME280;13818;52.156;5.382;2023-11-19T11:11:03;100509.13;;;14.65;100.00
26043;BME280;13818;52.156;5.382;2023-11-19T11:13:31;100509.75;;;14.69;100.00
26043;BME280;13818;52.156;5.382;2023-11-19T11:15:59;100513.88;;;14.60;100.00
26043;BME280;13818;52.156;5.382;2023-11-19T11:18:28;100511.56;;;14.68;100.00
26043;BME280;13818;52.156;5.382;2023-11-19T11:20:58;100507.28;;;14.78;100.00
26043;BME280;13818;52.156;5.382;2023-11-19T11:23:58;100500.53;;;14.99;100.00
26043;BME280;13818;52.156;5.382;2023-11-19T11:26:48;100493.56;;;14.96;100.00
26043;BME280;13818;52.156;5.382;2023-11-19T11:29:26;100495.03;;;15.00;100.00
26043;BME280;13818;52.156;5.382;2023-11-19T11:32:01;100499.91;;;15.08;100.00
26043;BME280;13818;52.156;5.382;2023-11-19T11:34:48;100489.69;;;15.13;100.00
26043;BME280;13818;52.156;5.382;2023-11-19T11:37:18;100501.59;;;14.96;100.00
26043;BME280;13818;52.156;5.382;2023-11-19T11:39:45;100494.22;;;14.87;100.00
26043;BME280;13818;52.156;5.382;2023-11-19T11:42:31;100490.75;;;14.97;100.00
26043;BME280;13818;52.156;5.382;2023-11-19T11:44:58;100484.75;;;15.07;100.00
26043;BME280;13818;52.156;5.382;2023-11-19T11:47:25;100484.97;;;15.04;100.00
26043;BME280;13818;52.156;5.382;2023-11-19T11:49:53;100486.00;;;15.14;100.00
26043;BME280;13818;52.156;5.382;2023-11-19T11:52:20;100483.25;;;15.16;100.00
26043;BME280;13818;52.156;5.382;2023-11-19T11:54:47;100481.09;;;15.21;100.00
26043;BME280;13818;52.156;5.382;2023-11-19T11:57:14;100483.44;;;15.12;100.00
26043;BME280;13818;52.156;5.382;2023-11-19T11:59:49;100490.44;;;15.02;100.00
26043;BME280;13818;52.156;5.382;2023-11-19T12:02:17;100483.03;;;15.06;100.00
26043;BME280;13818;52.156;5.382;2023-11-19T12:04:48;100486.13;;;15.12;100.00
26043;BME280;13818;52.156;5.382;2023-11-19T12:07:18;100484.75;;;15.07;100.00
26043;BME280;13818;52.156;5.382;2023-11-19T12:09:51;100478.50;;;15.06;100.00
26043;BME280;13818;52.156;5.382;2023-11-19T12:12:21;100475.84;;;14.93;100.00
26043;BME280;13818;52.156;5.382;2023-11-19T12:15:05;100475.72;;;14.95;100.00
26043;BME280;13818;52.156;5.382;2023-11-19T12:17:37;100479.84;;;14.88;100.00
26043;BME280;13818;52.156;5.382;2023-11-19T12:20:06;100471.78;;;14.88;100.00
26043;BME280;13818;52.156;5.382;2023-11-19T12:22:37;100465.44;;;14.76;100.00
26043;BME280;13818;52.156;5.382;2023-11-19T12:25:19;100471.25;;;14.95;100.00
26043;BME280;13818;52.156;5.382;2023-11-19T12:27:48;100459.09;;;15.03;100.00
26043;BME280;13818;52.156;5.382;2023-11-19T12:30:17;100465.88;;;14.95;100.00
26043;BME280;13818;52.156;5.382;2023-11-19T12:32:45;100477.34;;;14.97;100.00
26043;BME280;13818;52.156;5.382;2023-11-19T12:35:12;100473.56;;;15.00;100.00
26043;BME280;13818;52.156;5.382;2023-11-19T12:37:42;100468.13;;;15.02;100.00
26043;BME280;13818;52.156;5.382;2023-11-19T12:40:14;100472.72;;;15.00;100.00
26043;BME280;13818;52.156;5.382;2023-11-19T12:42:41;100478.41;;;14.95;100.00
26043;BME280;13818;52.156;5.382;2023-11-19T12:45:08;100479.06;;;14.86;100.00